createdAt,value
2022-12-15T00:02:26.260Z,15.90
2022-12-15T00:05:11.809Z,14.47
2022-12-15T00:07:57.514Z,15.63
2022-12-15T00:10:42.663Z,16.50
2022-12-15T00:13:32.250Z,15.70
2022-12-15T00:16:17.804Z,15.23
2022-12-15T00:19:03.239Z,14.57
2022-12-15T00:21:48.928Z,14.63
2022-12-15T00:24:34.611Z,15.50
2022-12-15T00:27:19.870Z,15.63
2022-12-15T00:30:07.180Z,14.80
2022-12-15T00:32:53.033Z,15.73
2022-12-15T00:35:38.411Z,15.33
2022-12-15T00:38:27.833Z,15.20
2022-12-15T00:40:59.541Z,14.93
2022-12-15T00:43:29.104Z,15.20
2022-12-15T00:46:16.426Z,15.63
2022-12-15T00:48:44.989Z,15.73
2022-12-15T00:51:13.174Z,14.80
2022-12-15T00:53:59.045Z,14.37
2022-12-15T00:56:45.073Z,14.67
2022-12-15T00:59:30.887Z,15.20
2022-12-15T01:02:18.504Z,15.20
2022-12-15T01:05:04.013Z,14.80
2022-12-15T01:07:49.866Z,14.60
2022-12-15T01:10:36.570Z,14.17
2022-12-15T01:13:22.490Z,13.93
2022-12-15T01:16:07.867Z,15.03
2022-12-15T01:18:54.945Z,15.43
2022-12-15T01:21:24.947Z,14.67
2022-12-15T01:23:53.765Z,14.93
2022-12-15T01:26:21.824Z,15.53
2022-12-15T01:28:49.831Z,15.17
2022-12-15T01:31:17.642Z,15.40
2022-12-15T01:33:47.382Z,15.97
2022-12-15T01:36:15.637Z,17.30
2022-12-15T01:38:45.106Z,17.07
2022-12-15T01:41:15.135Z,16.60
2022-12-15T01:43:43.089Z,16.90
2022-12-15T01:46:13.059Z,17.37
2022-12-15T01:48:44.131Z,18.20
2022-12-15T01:51:19.198Z,17.13
2022-12-15T01:53:54.314Z,17.30
2022-12-15T01:56:24.929Z,17.00
2022-12-15T01:58:55.987Z,16.80
2022-12-15T02:01:24.198Z,17.03
2022-12-15T02:03:52.529Z,17.07
2022-12-15T02:06:23.116Z,16.50
2022-12-15T02:08:53.928Z,17.70
2022-12-15T02:11:42.154Z,15.93
2022-12-15T02:14:11.811Z,16.13
2022-12-15T02:16:57.165Z,17.17
2022-12-15T02:19:48.581Z,16.30
2022-12-15T02:22:28.507Z,16.60
2022-12-15T02:25:21.022Z,15.50
2022-12-15T02:27:59.789Z,16.47
2022-12-15T02:30:40.049Z,16.83
2022-12-15T02:33:15.034Z,16.70
2022-12-15T02:35:58.936Z,16.90
2022-12-15T02:38:32.585Z,16.67
2022-12-15T02:41:01.950Z,17.60
2022-12-15T02:43:34.915Z,16.50
2022-12-15T02:46:18.015Z,16.43
2022-12-15T02:48:58.094Z,17.27
2022-12-15T02:51:37.087Z,16.87
2022-12-15T02:54:29.009Z,17.33
2022-12-15T02:57:05.916Z,17.80
2022-12-15T02:59:41.210Z,19.10
2022-12-15T03:02:13.748Z,17.77
2022-12-15T03:04:45.494Z,18.50
2022-12-15T03:07:15.271Z,18.63
2022-12-15T03:09:43.484Z,18.00
2022-12-15T03:12:11.586Z,18.07
2022-12-15T03:14:39.652Z,17.97
2022-12-15T03:17:07.589Z,18.43
2022-12-15T03:19:37.052Z,17.47
2022-12-15T03:22:05.348Z,17.60
2022-12-15T03:24:33.263Z,18.27
2022-12-15T03:27:01.121Z,16.83
2022-12-15T03:29:29.121Z,18.07
2022-12-15T03:31:57.012Z,18.37
2022-12-15T03:34:25.080Z,18.00
2022-12-15T03:36:54.638Z,18.60
2022-12-15T03:39:22.544Z,18.37
2022-12-15T03:41:50.453Z,17.57
2022-12-15T03:44:18.291Z,17.77
2022-12-15T03:46:46.072Z,18.30
2022-12-15T03:49:13.985Z,17.97
2022-12-15T03:51:41.811Z,17.53
2022-12-15T03:54:12.608Z,17.00
2022-12-15T03:56:40.616Z,17.53
2022-12-15T03:59:08.422Z,18.07
2022-12-15T04:01:37.976Z,17.30
2022-12-15T04:04:06.957Z,18.07
2022-12-15T04:06:34.765Z,17.83
2022-12-15T04:09:02.574Z,17.33
2022-12-15T04:11:31.921Z,17.60
2022-12-15T04:14:00.017Z,17.97
2022-12-15T04:16:27.957Z,17.93
2022-12-15T04:19:09.732Z,17.70
2022-12-15T04:21:37.679Z,17.63
2022-12-15T04:24:23.877Z,18.10
2022-12-15T04:27:10.781Z,16.43
2022-12-15T04:29:56.162Z,18.47
2022-12-15T04:32:42.764Z,18.03
2022-12-15T04:35:29.639Z,17.57
2022-12-15T04:38:14.747Z,18.77
2022-12-15T04:41:00.633Z,17.47
2022-12-15T04:43:47.672Z,17.23
2022-12-15T04:46:32.872Z,17.23
2022-12-15T04:49:18.236Z,17.63
2022-12-15T04:52:03.356Z,17.70
2022-12-15T04:54:49.717Z,17.20
2022-12-15T04:57:34.884Z,17.87
2022-12-15T05:00:22.748Z,18.40
2022-12-15T05:03:12.357Z,17.97
2022-12-15T05:06:00.334Z,18.30
2022-12-15T05:08:45.738Z,18.20
2022-12-15T05:11:35.380Z,18.30
2022-12-15T05:14:20.549Z,19.33
2022-12-15T05:17:07.537Z,19.23
2022-12-15T05:19:52.829Z,18.13
2022-12-15T05:22:38.245Z,18.33
2022-12-15T05:25:23.970Z,19.20
2022-12-15T05:28:09.269Z,18.83
2022-12-15T05:30:54.802Z,18.90
2022-12-15T05:33:24.304Z,19.27
2022-12-15T05:35:52.243Z,18.57
2022-12-15T05:38:20.082Z,19.30
2022-12-15T05:40:48.168Z,20.10
2022-12-15T05:43:16.690Z,20.43
2022-12-15T05:45:46.329Z,19.80
2022-12-15T05:48:14.649Z,18.43
2022-12-15T05:50:43.872Z,19.30
2022-12-15T05:53:11.782Z,20.10
2022-12-15T05:55:39.746Z,19.33
2022-12-15T05:58:07.621Z,19.90
2022-12-15T06:00:35.529Z,19.30
2022-12-15T06:03:03.844Z,19.87
2022-12-15T06:05:31.784Z,19.17
2022-12-15T06:08:02.487Z,19.17
2022-12-15T06:10:30.321Z,18.87
2022-12-15T06:12:58.150Z,19.83
2022-12-15T06:15:26.065Z,18.13
2022-12-15T06:17:55.828Z,18.67
2022-12-15T06:20:24.311Z,18.37
2022-12-15T06:22:52.239Z,19.00
2022-12-15T06:25:21.683Z,20.37
2022-12-15T06:27:49.526Z,20.20
2022-12-15T06:30:18.325Z,20.37
2022-12-15T06:32:46.250Z,18.70
2022-12-15T06:35:17.885Z,18.93
2022-12-15T06:37:45.849Z,18.73
2022-12-15T06:40:13.968Z,20.63
2022-12-15T06:42:43.322Z,20.20
2022-12-15T06:45:11.941Z,20.50
2022-12-15T06:47:39.735Z,21.20
2022-12-15T06:50:07.927Z,21.63
2022-12-15T06:52:35.828Z,22.53
2022-12-15T06:55:03.644Z,21.47
2022-12-15T06:57:31.809Z,22.63
2022-12-15T07:00:01.163Z,21.83
2022-12-15T07:02:30.233Z,22.80
2022-12-15T07:04:58.239Z,23.40
2022-12-15T07:07:27.602Z,24.10
2022-12-15T07:09:55.448Z,23.50
2022-12-15T07:12:23.258Z,23.87
2022-12-15T07:14:53.588Z,22.73
2022-12-15T07:17:24.145Z,24.50
2022-12-15T07:19:52.247Z,24.97
2022-12-15T07:22:20.917Z,24.77
2022-12-15T07:24:49.319Z,24.10
2022-12-15T07:27:18.126Z,23.63
2022-12-15T07:29:46.157Z,24.70
2022-12-15T07:32:15.601Z,23.80
2022-12-15T07:34:45.320Z,24.07
2022-12-15T07:37:16.149Z,23.53
2022-12-15T07:39:44.307Z,24.07
2022-12-15T07:42:12.152Z,25.30
2022-12-15T07:44:39.951Z,23.57
2022-12-15T07:47:07.777Z,25.00
2022-12-15T07:49:35.667Z,23.83
2022-12-15T07:52:05.724Z,23.70
2022-12-15T07:54:36.814Z,23.47
2022-12-15T07:57:07.534Z,24.93
2022-12-15T07:59:39.127Z,26.80
2022-12-15T08:02:07.657Z,29.20
2022-12-15T08:04:36.174Z,30.40
2022-12-15T08:07:06.215Z,34.10
2022-12-15T08:09:34.614Z,44.93
2022-12-15T08:12:02.877Z,35.47
2022-12-15T08:14:32.356Z,30.30
2022-12-15T08:17:03.694Z,25.60
2022-12-15T08:19:31.873Z,25.87
2022-12-15T08:22:00.145Z,24.53
2022-12-15T08:24:30.100Z,23.70
2022-12-15T08:26:58.495Z,24.40
2022-12-15T08:29:50.492Z,23.07
2022-12-15T08:32:15.707Z,22.30
2022-12-15T08:34:44.312Z,23.47
2022-12-15T08:37:13.148Z,22.40
2022-12-15T08:39:43.158Z,23.63
2022-12-15T08:42:11.697Z,21.43
2022-12-15T08:44:39.848Z,21.30
2022-12-15T08:47:08.704Z,21.80
2022-12-15T08:49:36.935Z,21.93
2022-12-15T08:52:05.188Z,21.90
2022-12-15T08:54:33.891Z,22.30
2022-12-15T08:57:03.820Z,22.87
2022-12-15T08:59:32.167Z,22.47
2022-12-15T09:02:00.572Z,22.50
2022-12-15T09:04:28.825Z,23.83
2022-12-15T09:06:56.773Z,22.43
2022-12-15T09:09:24.928Z,22.83
2022-12-15T09:11:52.790Z,21.83
2022-12-15T09:14:28.791Z,22.37
2022-12-15T09:16:57.462Z,22.43
2022-12-15T09:19:25.521Z,22.30
2022-12-15T09:21:53.434Z,22.50
2022-12-15T09:24:32.275Z,22.93
2022-12-15T09:27:03.354Z,22.37
2022-12-15T09:29:32.922Z,22.93
2022-12-15T09:32:01.084Z,23.70
2022-12-15T09:34:29.130Z,24.57
2022-12-15T09:36:57.479Z,25.80
2022-12-15T09:39:26.128Z,28.83
2022-12-15T09:41:58.280Z,27.87
2022-12-15T09:44:27.954Z,27.13
2022-12-15T09:47:09.952Z,27.80
2022-12-15T09:49:50.979Z,26.73
2022-12-15T09:52:26.573Z,28.83
2022-12-15T09:54:55.411Z,28.97
2022-12-15T09:57:41.778Z,30.50
2022-12-15T10:00:21.419Z,35.03
2022-12-15T10:03:31.275Z,32.77
2022-12-15T10:06:16.607Z,31.60
2022-12-15T10:08:50.812Z,31.70
2022-12-15T10:11:34.495Z,30.97
2022-12-15T10:14:13.051Z,30.10
2022-12-15T10:16:52.752Z,31.03
2022-12-15T10:19:28.165Z,32.03
2022-12-15T10:21:58.334Z,31.30
2022-12-15T10:25:07.872Z,31.07
2022-12-15T10:27:36.096Z,32.07
2022-12-15T10:30:09.914Z,31.30
2022-12-15T10:32:51.418Z,31.27
2022-12-15T10:35:25.633Z,33.00
2022-12-15T10:37:55.255Z,35.70
2022-12-15T10:40:50.448Z,33.07
2022-12-15T10:43:38.704Z,33.40
2022-12-15T10:46:15.142Z,31.37
2022-12-15T10:48:48.693Z,32.90
2022-12-15T10:51:29.065Z,30.10
2022-12-15T10:54:06.532Z,32.17
2022-12-15T10:56:36.123Z,31.30
2022-12-15T10:59:06.071Z,31.33
2022-12-15T11:01:36.070Z,31.90
2022-12-15T11:04:04.361Z,31.73
2022-12-15T11:06:42.610Z,31.97
2022-12-15T11:09:28.147Z,33.40
2022-12-15T11:12:13.910Z,32.27
2022-12-15T11:17:41.837Z,31.93
2022-12-15T11:20:22.117Z,32.20
2022-12-15T11:22:54.325Z,32.07
2022-12-15T11:25:34.783Z,32.60
2022-12-15T11:28:07.967Z,33.00
2022-12-15T11:30:43.423Z,32.20
2022-12-15T11:33:11.338Z,33.43
2022-12-15T11:35:56.981Z,33.10
2022-12-15T11:38:33.769Z,33.30
2022-12-15T11:41:10.116Z,32.70
2022-12-15T11:43:54.360Z,32.10
2022-12-15T11:46:24.481Z,32.13
2022-12-15T11:49:13.893Z,33.50
2022-12-15T11:51:47.070Z,33.30
2022-12-15T11:54:26.950Z,32.27
2022-12-15T11:57:03.149Z,32.97
2022-12-15T11:59:47.464Z,33.30
2022-12-15T12:02:35.757Z,33.27
2022-12-15T12:05:20.483Z,34.20
2022-12-15T12:07:50.980Z,33.07
2022-12-15T12:10:36.630Z,32.87
2022-12-15T12:13:15.437Z,33.20
2022-12-15T12:15:52.730Z,32.13
2022-12-15T12:18:24.333Z,34.77
2022-12-15T12:20:58.024Z,33.23
2022-12-15T12:23:32.790Z,33.73
2022-12-15T12:26:07.078Z,38.20
2022-12-15T12:28:44.397Z,37.30
2022-12-15T12:31:23.487Z,35.90
2022-12-15T12:33:56.521Z,33.87
2022-12-15T12:36:24.537Z,34.33
2022-12-15T12:38:56.209Z,35.53
2022-12-15T12:41:36.313Z,34.17
2022-12-15T12:44:11.286Z,34.83
2022-12-15T12:46:43.831Z,34.90
2022-12-15T12:49:26.186Z,33.67
2022-12-15T12:51:56.524Z,33.70
2022-12-15T12:54:42.861Z,33.13
2022-12-15T12:57:33.351Z,34.33
2022-12-15T13:00:04.132Z,31.77
2022-12-15T13:02:50.510Z,33.63
2022-12-15T13:05:34.809Z,34.37
2022-12-15T13:08:55.774Z,36.27
2022-12-15T13:11:57.257Z,42.83
2022-12-15T13:14:51.629Z,45.83
2022-12-15T13:17:32.056Z,41.30
2022-12-15T13:20:31.319Z,39.30
2022-12-15T13:23:32.659Z,35.83
2022-12-15T13:26:14.399Z,33.20
2022-12-15T13:28:45.999Z,34.83
2022-12-15T13:31:27.562Z,36.33
2022-12-15T13:34:17.697Z,35.30
2022-12-15T13:36:54.492Z,34.63
2022-12-15T13:39:51.727Z,34.90
2022-12-15T13:42:34.968Z,34.97
2022-12-15T13:45:40.067Z,37.27
2022-12-15T13:48:36.266Z,37.27
2022-12-15T13:51:19.753Z,35.03
2022-12-15T13:53:52.328Z,35.07
2022-12-15T13:56:26.646Z,34.33
2022-12-15T13:59:00.766Z,33.43
2022-12-15T14:01:33.175Z,34.07
2022-12-15T14:04:08.304Z,33.93
2022-12-15T14:06:39.815Z,34.47
2022-12-15T14:09:13.649Z,36.30
2022-12-15T14:11:53.244Z,37.43
2022-12-15T14:14:25.735Z,38.07
2022-12-15T14:17:00.693Z,35.37
2022-12-15T14:19:38.635Z,34.00
2022-12-15T14:22:27.184Z,34.57
2022-12-15T14:25:02.251Z,35.57
2022-12-15T14:27:31.948Z,35.10
2022-12-15T14:30:23.498Z,36.13
2022-12-15T14:32:55.652Z,35.37
2022-12-15T14:35:30.812Z,34.07
2022-12-15T14:38:01.657Z,36.03
2022-12-15T14:40:30.960Z,35.10
2022-12-15T14:42:59.056Z,33.87
2022-12-15T14:45:29.673Z,34.13
2022-12-15T14:50:51.363Z,35.40
2022-12-15T14:53:22.521Z,34.67
2022-12-15T14:55:51.549Z,34.07
2022-12-15T14:58:33.909Z,34.93
2022-12-15T15:01:03.756Z,35.60
2022-12-15T15:03:06.889Z,30.90
2022-12-15T15:03:38.273Z,32.97
2022-12-15T15:06:18.854Z,33.70
2022-12-15T15:08:49.002Z,34.10
2022-12-15T15:11:29.442Z,35.23
2022-12-15T15:14:01.199Z,32.83
2022-12-15T15:16:29.278Z,34.43
2022-12-15T15:18:58.205Z,33.93
2022-12-15T15:21:30.261Z,34.57
2022-12-15T15:24:03.051Z,34.40
2022-12-15T15:26:32.058Z,35.73
2022-12-15T15:29:00.003Z,33.40
2022-12-15T15:31:38.546Z,33.00
2022-12-15T15:34:09.192Z,33.17
2022-12-15T15:36:39.955Z,33.80
2022-12-15T15:39:15.212Z,35.17
2022-12-15T15:41:43.275Z,34.17
2022-12-15T15:44:14.178Z,33.23
2022-12-15T15:46:47.763Z,33.77
2022-12-15T15:49:18.820Z,33.37
2022-12-15T15:51:48.391Z,33.53
2022-12-15T15:54:20.317Z,32.50
2022-12-15T15:56:48.253Z,33.13
2022-12-15T15:59:17.688Z,32.90
2022-12-15T16:01:46.513Z,34.43
2022-12-15T16:04:14.694Z,34.13
2022-12-15T16:06:47.239Z,32.77
2022-12-15T16:09:17.952Z,34.60
2022-12-15T16:11:47.044Z,32.37
2022-12-15T16:14:16.496Z,32.73
2022-12-15T16:16:45.379Z,32.30
2022-12-15T16:19:13.407Z,31.67
2022-12-15T16:21:42.700Z,30.47
2022-12-15T16:24:14.472Z,31.80
2022-12-15T16:26:48.001Z,31.53
2022-12-15T16:29:17.643Z,31.17
2022-12-15T16:31:46.079Z,31.97
2022-12-15T16:34:16.351Z,32.97
2022-12-15T16:36:45.302Z,32.20
2022-12-15T16:39:26.922Z,32.77
2022-12-15T16:41:57.511Z,33.73
2022-12-15T16:44:27.368Z,32.00
2022-12-15T16:46:55.274Z,33.47
2022-12-15T16:49:23.212Z,31.27
2022-12-15T16:51:53.538Z,33.17
2022-12-15T16:54:24.432Z,32.23
2022-12-15T16:56:53.440Z,31.90
2022-12-15T16:59:33.496Z,31.90
2022-12-15T17:02:02.302Z,32.87
2022-12-15T17:04:30.467Z,32.77
2022-12-15T17:06:58.451Z,31.43
2022-12-15T17:09:27.008Z,30.37
2022-12-15T17:11:54.878Z,32.07
2022-12-15T17:14:24.719Z,30.83
2022-12-15T17:16:52.710Z,30.53
2022-12-15T17:19:21.484Z,32.37
2022-12-15T17:21:52.881Z,32.43
2022-12-15T17:24:22.602Z,33.27
2022-12-15T17:26:51.233Z,30.27
2022-12-15T17:29:22.896Z,31.67
2022-12-15T17:31:52.253Z,32.60
2022-12-15T17:34:27.753Z,31.13
2022-12-15T17:36:56.419Z,31.53
2022-12-15T17:39:24.406Z,31.67
2022-12-15T17:42:01.547Z,31.73
2022-12-15T17:44:33.691Z,31.87
2022-12-15T17:47:05.799Z,30.50
2022-12-15T17:49:36.616Z,31.23
2022-12-15T17:52:09.165Z,30.73
2022-12-15T17:54:37.333Z,31.57
2022-12-15T17:57:05.268Z,30.80
2022-12-15T17:59:33.157Z,30.43
2022-12-15T18:02:01.186Z,31.67
2022-12-15T18:04:31.385Z,31.37
2022-12-15T18:07:02.167Z,32.20
2022-12-15T18:09:31.229Z,30.77
2022-12-15T18:11:59.207Z,33.27
2022-12-15T18:14:29.184Z,32.47
2022-12-15T18:17:07.865Z,32.63
2022-12-15T18:19:37.202Z,33.83
2022-12-15T18:22:05.436Z,33.97
2022-12-15T18:24:33.499Z,31.83
2022-12-15T18:27:01.389Z,31.20
2022-12-15T18:29:29.178Z,31.40
2022-12-15T18:31:57.236Z,33.30
2022-12-15T18:34:25.149Z,33.90
2022-12-15T18:36:54.621Z,33.07
2022-12-15T18:39:24.712Z,33.57
2022-12-15T18:41:54.763Z,35.23
2022-12-15T18:44:25.303Z,32.27
2022-12-15T18:46:55.163Z,33.27
2022-12-15T18:49:23.564Z,31.83
2022-12-15T18:51:51.835Z,30.73
2022-12-15T18:54:23.394Z,31.00
2022-12-15T18:56:52.203Z,32.53
2022-12-15T18:59:22.920Z,32.67
2022-12-15T19:01:50.845Z,31.40
2022-12-15T19:04:18.901Z,30.37
2022-12-15T19:06:46.973Z,31.77
2022-12-15T19:09:17.930Z,31.37
2022-12-15T19:12:17.761Z,29.57
2022-12-15T19:14:47.381Z,29.07
2022-12-15T19:17:35.268Z,28.87
2022-12-15T19:20:25.156Z,27.77
2022-12-15T19:22:53.689Z,28.10
2022-12-15T19:25:26.124Z,27.93
2022-12-15T19:27:59.286Z,28.13
2022-12-15T19:30:29.374Z,27.50
2022-12-15T19:32:57.848Z,28.07
2022-12-15T19:35:27.364Z,27.70
2022-12-15T19:37:57.887Z,29.27
2022-12-15T19:40:30.348Z,27.50
2022-12-15T19:43:00.486Z,28.30
2022-12-15T19:45:30.308Z,26.87
2022-12-15T19:47:58.608Z,26.80
2022-12-15T19:50:29.157Z,26.90
2022-12-15T19:53:00.134Z,26.47
2022-12-15T19:55:30.631Z,26.77
2022-12-15T19:58:01.039Z,28.47
2022-12-15T20:00:29.081Z,27.17
2022-12-15T20:02:58.546Z,27.77
2022-12-15T20:05:26.799Z,27.93
2022-12-15T20:07:55.652Z,28.17
2022-12-15T20:10:31.920Z,27.87
2022-12-15T20:13:03.213Z,29.70
2022-12-15T20:15:31.070Z,30.03
2022-12-15T20:17:59.033Z,29.77
2022-12-15T20:20:28.696Z,29.37
2022-12-15T20:22:59.905Z,29.10
2022-12-15T20:25:30.697Z,28.53
2022-12-15T20:28:00.437Z,27.87
2022-12-15T20:30:33.269Z,28.07
2022-12-15T20:33:01.497Z,28.37
2022-12-15T20:35:32.995Z,27.20
2022-12-15T20:38:04.341Z,27.00
2022-12-15T20:40:32.888Z,26.53
2022-12-15T20:43:00.765Z,27.00
2022-12-15T20:45:30.280Z,26.80
2022-12-15T20:47:58.227Z,26.53
2022-12-15T20:50:29.453Z,28.27
2022-12-15T20:52:57.485Z,27.40
2022-12-15T20:55:25.506Z,27.80
2022-12-15T20:57:53.572Z,29.63
2022-12-15T21:00:22.211Z,31.37
2022-12-15T21:02:52.269Z,30.27
2022-12-15T21:05:25.824Z,29.33
2022-12-15T21:07:54.259Z,30.27
2022-12-15T21:10:22.639Z,31.47
2022-12-15T21:12:51.007Z,28.87
2022-12-15T21:15:21.233Z,29.63
2022-12-15T21:18:11.000Z,30.40
2022-12-15T21:20:42.885Z,28.83
2022-12-15T21:23:24.051Z,30.93
2022-12-15T21:25:52.916Z,30.40
2022-12-15T21:28:22.239Z,27.87
2022-12-15T21:30:50.986Z,27.97
2022-12-15T21:33:20.594Z,29.00
2022-12-15T21:35:49.631Z,28.17
2022-12-15T21:38:29.891Z,30.00
2022-12-15T21:41:00.098Z,28.87
2022-12-15T21:43:31.144Z,28.43
2022-12-15T21:45:59.880Z,29.23
2022-12-15T21:48:46.383Z,29.03
2022-12-15T21:51:15.534Z,28.67
2022-12-15T21:53:44.388Z,28.17
2022-12-15T21:56:16.509Z,29.07
2022-12-15T21:58:44.525Z,28.77
2022-12-15T22:01:24.345Z,27.93
2022-12-15T22:03:55.529Z,27.03
2022-12-15T22:06:25.784Z,28.10
2022-12-15T22:08:54.181Z,25.93
2022-12-15T22:11:24.842Z,27.23
2022-12-15T22:13:55.158Z,25.40
2022-12-15T22:16:23.722Z,26.10
2022-12-15T22:18:55.100Z,25.77
2022-12-15T22:21:23.983Z,24.57
2022-12-15T22:23:52.227Z,25.47
2022-12-15T22:26:22.771Z,24.03
2022-12-15T22:28:51.457Z,24.13
2022-12-15T22:31:19.716Z,23.50
2022-12-15T22:33:47.669Z,23.43
2022-12-15T22:36:17.036Z,23.93
2022-12-15T22:38:45.211Z,25.67
2022-12-15T22:41:19.456Z,24.47
2022-12-15T22:43:51.942Z,23.20
2022-12-15T22:46:22.518Z,23.97
2022-12-15T22:48:51.746Z,23.43
2022-12-15T22:51:21.341Z,23.73
2022-12-15T22:53:49.312Z,22.40
2022-12-15T22:56:27.035Z,23.37
2022-12-15T22:59:00.782Z,24.20
2022-12-15T23:01:29.965Z,23.70
2022-12-15T23:03:58.044Z,24.33
2022-12-15T23:06:29.194Z,22.73
2022-12-15T23:08:57.007Z,22.03
2022-12-15T23:11:39.560Z,24.03
2022-12-15T23:14:10.232Z,23.07
2022-12-15T23:16:37.813Z,23.47
2022-12-15T23:19:07.895Z,23.57
2022-12-15T23:21:37.918Z,23.20
2022-12-15T23:24:06.017Z,24.47
2022-12-15T23:26:34.053Z,23.70
2022-12-15T23:29:02.178Z,23.63
2022-12-15T23:31:30.341Z,23.03
2022-12-15T23:33:58.317Z,22.70
2022-12-15T23:36:26.504Z,22.63
2022-12-15T23:38:56.057Z,23.67
2022-12-15T23:41:23.816Z,22.97
2022-12-15T23:43:51.612Z,21.47
2022-12-15T23:46:19.930Z,21.43
2022-12-15T23:48:48.243Z,20.67
2022-12-15T23:51:18.116Z,21.77
2022-12-15T23:53:47.532Z,21.80
2022-12-15T23:56:19.615Z,21.53
2022-12-15T23:58:49.439Z,22.40
